Time;durP1;ratioP1;P1;durP2;ratioP2;P2;SDS_P1;SDS_P2;PMS_P1;PMS_P2;Temp;Humidity;BMP_temperature;BMP_pressure;BME280_temperature;BME280_humidity;BME280_pressure;Samples;Min_cycle;Max_cycle;Signal;HPM_P1;HPM_P2
2024/02/28 00:02:08;;;;;;;26.50;23.90;;;7.80;99.90;;;;;;4841793;29;20606;-79
2024/02/28 00:04:34;;;;;;;25.97;23.27;;;7.70;99.90;;;;;;4840878;29;20591;-79
2024/02/28 00:07:01;;;;;;;27.53;24.80;;;7.70;99.90;;;;;;4841594;29;20234;-79
2024/02/28 00:09:29;;;;;;;27.70;24.80;;;7.60;99.90;;;;;;4841181;29;20255;-79
2024/02/28 00:11:56;;;;;;;27.20;24.40;;;7.50;99.90;;;;;;4833967;29;20210;-79
2024/02/28 00:14:23;;;;;;;26.77;23.77;;;7.50;99.90;;;;;;4841273;29;20272;-79
2024/02/28 00:16:50;;;;;;;27.80;24.83;;;7.40;99.90;;;;;;4841119;29;20268;-79
2024/02/28 00:19:18;;;;;;;27.97;24.97;;;7.30;99.90;;;;;;4841267;29;20202;-79
2024/02/28 00:21:45;;;;;;;29.67;26.53;;;7.20;99.90;;;;;;4841645;29;20627;-79
2024/02/28 00:24:12;;;;;;;27.33;24.63;;;7.20;99.90;;;;;;4841277;29;20278;-79
2024/02/28 00:26:42;;;;;;;26.97;24.10;;;7.10;99.90;;;;;;4841101;29;20675;-79
2024/02/28 00:29:09;;;;;;;29.60;25.60;;;7.00;99.90;;;;;;4841419;29;20722;-79
2024/02/28 00:31:35;;;;;;;25.73;23.13;;;7.00;99.90;;;;;;4841056;29;20226;-79
2024/02/28 00:34:02;;;;;;;26.27;23.10;;;6.90;99.90;;;;;;4857603;29;20222;-79
2024/02/28 00:36:29;;;;;;;24.13;21.67;;;6.90;99.90;;;;;;4858445;29;20218;-79
2024/02/28 00:38:56;;;;;;;25.47;22.87;;;6.80;99.90;;;;;;4843340;29;20214;-79
2024/02/28 00:41:22;;;;;;;26.30;23.50;;;6.70;99.90;;;;;;4858504;29;20210;-79
2024/02/28 00:43:51;;;;;;;26.03;23.43;;;6.60;99.90;;;;;;4844311;29;20234;-79
2024/02/28 00:46:17;;;;;;;24.87;22.47;;;6.50;99.90;;;;;;4858884;29;20266;-79
2024/02/28 00:48:44;;;;;;;27.33;24.43;;;6.40;99.90;;;;;;4844403;29;20637;-79
2024/02/28 00:51:11;;;;;;;26.23;23.53;;;6.40;99.90;;;;;;4844787;29;20642;-79
2024/02/28 00:53:38;;;;;;;27.77;24.93;;;6.40;99.90;;;;;;4844309;29;20236;-79
2024/02/28 00:56:06;;;;;;;26.43;23.63;;;6.30;99.90;;;;;;4844636;29;20236;-79
2024/02/28 00:58:32;;;;;;;27.73;24.87;;;6.20;99.90;;;;;;4844135;29;20666;-79
2024/02/28 01:01:00;;;;;;;27.30;24.40;;;6.20;99.90;;;;;;4836943;29;20657;-79
2024/02/28 01:03:27;;;;;;;27.47;24.27;;;6.10;99.90;;;;;;4846674;29;20234;-79
2024/02/28 01:05:54;;;;;;;28.57;24.40;;;6.10;99.90;;;;;;4843734;29;20205;-79
2024/02/28 01:08:21;;;;;;;27.30;24.30;;;6.10;99.90;;;;;;4858259;29;20205;-79
2024/02/28 01:10:47;;;;;;;26.80;24.10;;;6.00;99.90;;;;;;4843885;29;20241;-79
2024/02/28 01:13:14;;;;;;;27.23;24.23;;;6.00;99.90;;;;;;4844062;29;20225;-79
2024/02/28 01:15:41;;;;;;;26.87;24.03;;;5.90;99.90;;;;;;4844388;29;20271;-79
2024/02/28 01:18:10;;;;;;;26.40;23.30;;;5.90;99.90;;;;;;4843972;29;20210;-79
2024/02/28 01:20:36;;;;;;;26.50;23.70;;;5.80;99.90;;;;;;4843749;29;20205;-78
2024/02/28 01:23:03;;;;;;;26.93;24.07;;;5.70;99.90;;;;;;4857979;29;20227;-79
2024/02/28 01:25:29;;;;;;;30.03;26.40;;;5.60;99.90;;;;;;4844054;29;20209;-79
2024/02/28 01:27:57;;;;;;;32.07;26.67;;;5.50;99.90;;;;;;4844197;29;20581;-79
2024/02/28 01:30:24;;;;;;;31.57;25.57;;;5.50;99.90;;;;;;4843715;29;20232;-79
2024/02/28 01:32:51;;;;;;;30.17;25.83;;;5.40;99.90;;;;;;4843735;29;20732;-79
2024/02/28 01:35:19;;;;;;;34.23;27.80;;;5.30;99.90;;;;;;4843408;29;20208;-79
2024/02/28 01:37:46;;;;;;;30.10;26.83;;;5.30;99.90;;;;;;4843761;29;20692;-79
2024/02/28 01:40:14;;;;;;;29.40;25.40;;;5.20;99.90;;;;;;4843648;29;20282;-79
2024/02/28 01:42:40;;;;;;;31.00;27.03;;;5.20;99.90;;;;;;4843745;29;20236;-79
2024/02/28 01:45:10;;;;;;;29.33;25.30;;;5.20;99.90;;;;;;4842991;29;20564;-79
2024/02/28 01:47:37;;;;;;;29.03;25.70;;;5.20;99.90;;;;;;4857484;29;20203;-79
2024/02/28 01:50:05;;;;;;;30.53;26.47;;;5.20;99.90;;;;;;4840588;29;20678;-79
2024/02/28 01:52:34;;;;;;;30.50;26.13;;;5.20;99.90;;;;;;4843084;29;20258;-79
2024/02/28 01:55:01;;;;;;;30.53;25.60;;;5.20;99.90;;;;;;4857157;29;20202;-79
2024/02/28 01:57:29;;;;;;;31.37;26.70;;;5.10;99.90;;;;;;4846777;29;20204;-78
2024/02/28 01:59:56;;;;;;;30.47;27.13;;;5.10;99.90;;;;;;4843033;29;20211;-79
2024/02/28 02:02:23;;;;;;;28.37;25.20;;;5.00;99.90;;;;;;4843431;29;20235;-79
2024/02/28 02:04:49;;;;;;;30.97;25.50;;;5.00;99.90;;;;;;4842999;29;20212;-79
2024/02/28 02:07:16;;;;;;;30.10;26.83;;;5.00;99.90;;;;;;4843065;29;20199;-79
2024/02/28 02:09:44;;;;;;;33.17;26.83;;;5.00;99.90;;;;;;4842774;29;20636;-79
2024/02/28 02:12:12;;;;;;;34.10;26.97;;;5.00;99.90;;;;;;4842997;29;20228;-79
2024/02/28 02:14:38;;;;;;;29.23;26.07;;;5.10;99.90;;;;;;4843365;29;20259;-79
2024/02/28 02:17:05;;;;;;;28.03;25.03;;;5.10;99.90;;;;;;4856944;29;20696;-79
2024/02/28 02:19:32;;;;;;;31.10;26.60;;;5.10;99.90;;;;;;4856504;29;20660;-79
2024/02/28 02:22:00;;;;;;;31.47;26.83;;;5.20;99.90;;;;;;4842932;29;20676;-78
2024/02/28 02:24:28;;;;;;;30.10;26.20;;;5.20;99.90;;;;;;4843403;29;20600;-79
2024/02/28 02:26:57;;;;;;;32.60;27.17;;;5.30;99.90;;;;;;4842670;29;20258;-79
2024/02/28 02:29:24;;;;;;;32.70;28.23;;;5.30;99.90;;;;;;4842614;29;20252;-79
2024/02/28 02:31:51;;;;;;;31.17;27.83;;;5.30;99.90;;;;;;4856694;29;20800;-79
2024/02/28 02:34:18;;;;;;;29.50;26.30;;;5.40;99.90;;;;;;4841328;29;20652;-79
2024/02/28 02:36:44;;;;;;;31.33;26.83;;;5.50;99.90;;;;;;4857209;29;20288;-78
2024/02/28 02:39:11;;;;;;;31.03;26.97;;;5.50;99.90;;;;;;4842455;29;20253;-79
2024/02/28 02:41:40;;;;;;;32.73;28.70;;;5.50;99.90;;;;;;4856863;29;20309;-79
2024/02/28 02:44:08;;;;;;;30.87;26.83;;;5.60;99.90;;;;;;4856151;29;20235;-79
2024/02/28 02:46:34;;;;;;;31.53;26.67;;;5.70;99.90;;;;;;4842416;29;20236;-79
2024/02/28 02:49:01;;;;;;;30.67;25.80;;;5.70;99.90;;;;;;4855682;29;20210;-79
2024/02/28 02:51:28;;;;;;;32.73;27.63;;;5.70;99.90;;;;;;4840651;29;20216;-79
2024/02/28 02:53:55;;;;;;;33.77;27.33;;;5.80;99.90;;;;;;4842166;29;20233;-79
2024/02/28 02:56:21;;;;;;;31.27;27.90;;;5.80;99.90;;;;;;4846973;29;20592;-79
2024/02/28 02:58:50;;;;;;;33.80;28.13;;;5.90;99.90;;;;;;4842142;29;20258;-79
2024/02/28 03:01:16;;;;;;;30.47;25.90;;;5.90;99.90;;;;;;4841781;29;20201;-79
2024/02/28 03:03:43;;;;;;;33.17;27.47;;;5.90;99.90;;;;;;4842024;29;20228;-79
2024/02/28 03:06:10;;;;;;;28.43;25.43;;;6.00;99.90;;;;;;4841976;29;20206;-79
2024/02/28 03:08:37;;;;;;;28.97;25.83;;;6.00;99.90;;;;;;4842162;29;20210;-79
2024/02/28 03:11:07;;;;;;;31.97;27.23;;;6.10;99.90;;;;;;4841659;29;20236;-79
2024/02/28 03:13:34;;;;;;;29.57;26.07;;;6.10;99.90;;;;;;4841638;29;20224;-79
2024/02/28 03:16:04;;;;;;;34.53;28.47;;;6.10;99.90;;;;;;4841682;29;20213;-79
2024/02/28 03:18:30;;;;;;;33.03;29.43;;;6.20;99.90;;;;;;4842024;29;20216;-79
2024/02/28 03:20:57;;;;;;;33.13;28.33;;;6.30;99.90;;;;;;4841201;29;20201;-79
2024/02/28 03:23:24;;;;;;;31.30;27.90;;;6.30;99.90;;;;;;4855765;29;20618;-79
2024/02/28 03:25:51;;;;;;;31.13;26.17;;;6.30;99.90;;;;;;4841391;29;20237;-79
2024/02/28 03:28:17;;;;;;;29.17;25.90;;;6.30;99.90;;;;;;4848945;29;20614;-79
2024/02/28 03:30:44;;;;;;;28.23;24.73;;;6.40;99.90;;;;;;4855889;29;20574;-79
2024/02/28 03:33:12;;;;;;;26.40;23.70;;;6.40;99.90;;;;;;4841357;29;20228;-79
2024/02/28 03:35:39;;;;;;;28.07;24.27;;;6.40;99.90;;;;;;4841615;29;20215;-79
2024/02/28 03:38:06;;;;;;;30.23;25.70;;;6.50;99.90;;;;;;4855265;29;20222;-79
2024/02/28 03:40:33;;;;;;;28.27;25.17;;;6.50;99.90;;;;;;4841728;29;20242;-79
2024/02/28 03:43:01;;;;;;;27.93;24.83;;;6.50;99.90;;;;;;4842321;29;20238;-78
2024/02/28 03:45:28;;;;;;;29.00;26.00;;;6.50;99.90;;;;;;4841463;29;20209;-79
2024/02/28 03:47:55;;;;;;;31.27;27.03;;;6.50;99.90;;;;;;4841520;29;20269;-78
2024/02/28 03:50:23;;;;;;;30.87;26.83;;;6.50;99.90;;;;;;4840367;29;20206;-80
2024/02/28 03:52:53;;;;;;;30.97;26.80;;;6.50;99.90;;;;;;4837849;29;20226;-80
2024/02/28 03:55:23;;;;;;;28.20;25.10;;;6.50;99.90;;;;;;4841760;29;20212;-77
2024/02/28 03:57:51;;;;;;;30.17;25.20;;;6.50;99.90;;;;;;4829904;29;20698;-79
2024/02/28 04:00:18;;;;;;;27.17;24.33;;;6.50;99.90;;;;;;4862820;29;20657;-80
2024/02/28 04:02:45;;;;;;;26.10;23.40;;;6.50;99.90;;;;;;4833026;29;20234;-80
2024/02/28 04:05:12;;;;;;;28.67;25.20;;;6.50;99.90;;;;;;4839245;29;20246;-80
2024/02/28 04:07:40;;;;;;;29.40;26.27;;;6.50;99.90;;;;;;4838334;29;20213;-80
2024/02/28 04:10:08;;;;;;;26.97;24.13;;;6.50;99.90;;;;;;4844795;29;20237;-79
2024/02/28 04:12:35;;;;;;;32.73;27.10;;;6.60;99.90;;;;;;4843638;29;20244;-81
2024/02/28 04:15:02;;;;;;;28.60;25.10;;;6.60;99.90;;;;;;4846028;29;20217;-79
2024/02/28 04:17:29;;;;;;;28.37;24.73;;;6.60;99.90;;;;;;4858162;29;20214;-81
2024/02/28 04:19:57;;;;;;;29.20;26.10;;;6.60;99.90;;;;;;4843301;29;20237;-80
2024/02/28 04:22:24;;;;;;;28.83;25.70;;;6.60;99.90;;;;;;4844847;29;20198;-80
2024/02/28 04:24:52;;;;;;;27.20;24.30;;;6.60;99.90;;;;;;4843546;29;20207;-80
2024/02/28 04:27:19;;;;;;;26.00;23.20;;;6.60;99.90;;;;;;4858981;29;20204;-80
2024/02/28 04:29:45;;;;;;;26.70;23.87;;;6.60;99.90;;;;;;4844747;29;20269;-80
2024/02/28 04:32:12;;;;;;;28.93;24.87;;;6.60;99.90;;;;;;4845576;29;20255;-78
2024/02/28 04:34:39;;;;;;;28.63;25.23;;;6.70;99.90;;;;;;4845951;29;20212;-78
2024/02/28 04:37:06;;;;;;;27.20;24.37;;;6.70;99.90;;;;;;4843344;29;20209;-78
2024/02/28 04:39:33;;;;;;;26.83;23.97;;;6.70;99.90;;;;;;4844919;29;20263;-78
2024/02/28 04:42:01;;;;;;;29.40;23.67;;;6.70;99.90;;;;;;4858651;29;20214;-78
2024/02/28 04:44:27;;;;;;;28.07;24.10;;;6.70;99.90;;;;;;4844528;29;20268;-78
2024/02/28 04:46:54;;;;;;;27.53;24.40;;;6.70;99.90;;;;;;4842917;29;20271;-78
2024/02/28 04:49:23;;;;;;;26.03;23.23;;;6.80;99.90;;;;;;4839299;29;20195;-78
2024/02/28 04:51:49;;;;;;;26.17;23.43;;;6.80;99.90;;;;;;4848617;29;20218;-79
2024/02/28 04:54:16;;;;;;;28.30;24.30;;;6.80;99.90;;;;;;4843371;29;20245;-78
2024/02/28 04:56:43;;;;;;;27.93;24.93;;;6.70;99.90;;;;;;4844800;29;20693;-78
2024/02/28 04:59:12;;;;;;;29.17;24.97;;;6.80;99.90;;;;;;4844064;29;20202;-78
2024/02/28 05:01:41;;;;;;;29.90;24.90;;;6.80;99.90;;;;;;4845196;29;20210;-78
2024/02/28 05:04:09;;;;;;;30.00;26.10;;;6.80;99.90;;;;;;4843653;29;20309;-78
2024/02/28 05:06:36;;;;;;;26.33;23.53;;;6.80;99.90;;;;;;4842581;29;20230;-78
2024/02/28 05:09:03;;;;;;;25.63;22.87;;;6.80;99.90;;;;;;4853144;29;20207;-79
2024/02/28 05:11:29;;;;;;;26.67;23.87;;;6.80;99.90;;;;;;4843862;29;20594;-78
2024/02/28 05:13:56;;;;;;;26.23;23.40;;;6.80;99.90;;;;;;4843600;29;20771;-78
2024/02/28 05:16:24;;;;;;;27.77;24.93;;;6.90;99.90;;;;;;4836394;29;20201;-78
2024/02/28 05:18:51;;;;;;;26.50;23.80;;;6.90;99.90;;;;;;4842550;29;20233;-78
2024/02/28 05:21:18;;;;;;;27.70;24.73;;;6.90;99.90;;;;;;4842952;29;20202;-78
2024/02/28 05:23:45;;;;;;;26.73;23.93;;;6.80;99.90;;;;;;4847188;29;20720;-78
2024/02/28 05:26:11;;;;;;;29.13;25.43;;;6.90;99.90;;;;;;4843641;29;20620;-78
2024/02/28 05:28:38;;;;;;;27.13;23.83;;;6.90;99.90;;;;;;4858726;29;20207;-78
2024/02/28 05:31:21;;;;;;;32.97;28.33;;;6.90;99.90;;;;;;4843556;29;20242;-79
2024/02/28 05:33:50;;;;;;;28.60;25.27;;;6.80;99.90;;;;;;4843296;29;20660;-78
2024/02/28 05:36:17;;;;;;;26.93;24.03;;;6.90;99.90;;;;;;4841961;29;20206;-78
2024/02/28 05:38:44;;;;;;;28.40;25.40;;;6.90;99.90;;;;;;4843771;29;20198;-78
2024/02/28 05:41:11;;;;;;;30.20;25.83;;;6.90;99.90;;;;;;4843245;29;20684;-78
2024/02/28 05:43:38;;;;;;;25.20;22.67;;;6.80;99.90;;;;;;4856834;29;20271;-78
2024/02/28 05:46:05;;;;;;;30.47;24.70;;;6.80;99.90;;;;;;4841989;29;20287;-78
2024/02/28 05:48:31;;;;;;;27.03;24.17;;;6.90;99.90;;;;;;4842989;29;20251;-78
2024/02/28 05:51:02;;;;;;;30.53;26.23;;;6.80;99.90;;;;;;4841813;29;20210;-78
2024/02/28 05:53:32;;;;;;;27.37;24.37;;;6.80;99.90;;;;;;4842850;29;20229;-78
2024/02/28 05:55:59;;;;;;;30.90;27.43;;;6.80;99.90;;;;;;4843148;29;20552;-78
2024/02/28 05:58:26;;;;;;;27.70;24.50;;;6.80;99.90;;;;;;4842937;29;20214;-78
2024/02/28 06:00:52;;;;;;;27.87;25.03;;;6.90;99.90;;;;;;4842754;29;20199;-78
2024/02/28 06:03:19;;;;;;;28.07;25.07;;;6.80;99.90;;;;;;4842916;29;20226;-78
2024/02/28 06:05:46;;;;;;;29.23;24.97;;;6.80;99.90;;;;;;4841668;29;20569;-78
2024/02/28 06:08:15;;;;;;;26.90;24.03;;;6.80;99.90;;;;;;4856351;29;20248;-78
2024/02/28 06:10:43;;;;;;;27.43;24.37;;;6.80;99.90;;;;;;4857362;29;20248;-78
2024/02/28 06:13:10;;;;;;;27.67;24.73;;;6.80;99.90;;;;;;4857353;29;20329;-78
2024/02/28 06:15:36;;;;;;;26.73;23.93;;;6.80;99.90;;;;;;4843337;29;20210;-78
2024/02/28 06:18:03;;;;;;;27.80;24.80;;;6.80;99.90;;;;;;4843334;29;20675;-78
2024/02/28 06:20:31;;;;;;;27.73;24.73;;;6.90;99.90;;;;;;4844313;29;20207;-78
2024/02/28 06:22:58;;;;;;;28.70;25.80;;;6.90;99.90;;;;;;4843862;29;20513;-78
2024/02/28 06:25:28;;;;;;;27.30;24.53;;;6.80;99.90;;;;;;4856536;29;20292;-78
2024/02/28 06:27:54;;;;;;;29.27;26.07;;;6.80;99.90;;;;;;4842955;29;20754;-79
2024/02/28 06:30:21;;;;;;;29.40;25.40;;;6.80;99.90;;;;;;4842643;29;20216;-79
2024/02/28 06:32:48;;;;;;;28.47;25.47;;;6.90;99.90;;;;;;4842755;29;20261;-78
2024/02/28 06:35:16;;;;;;;30.17;26.90;;;6.80;99.90;;;;;;4857291;29;20203;-79
2024/02/28 06:37:48;;;;;;;29.47;26.47;;;6.80;99.90;;;;;;4842660;29;20195;-78
2024/02/28 06:40:15;;;;;;;30.07;26.73;;;6.80;99.90;;;;;;4843745;29;20206;-79
2024/02/28 06:42:43;;;;;;;27.23;24.33;;;6.90;99.90;;;;;;4843308;29;20805;-78
2024/02/28 06:45:10;;;;;;;28.93;25.83;;;6.90;99.90;;;;;;4857993;29;20210;-78
2024/02/28 06:47:37;;;;;;;28.43;25.37;;;6.90;99.90;;;;;;4843359;29;20690;-78
2024/02/28 06:50:05;;;;;;;29.10;24.83;;;6.90;99.90;;;;;;4843497;29;20241;-79
2024/02/28 06:52:31;;;;;;;30.17;26.93;;;6.90;99.90;;;;;;4843441;29;20222;-79
2024/02/28 06:54:59;;;;;;;28.23;25.10;;;6.90;99.90;;;;;;4843816;29;20261;-79
2024/02/28 06:57:26;;;;;;;27.13;24.33;;;6.90;99.90;;;;;;4842355;29;20710;-78
2024/02/28 06:59:54;;;;;;;28.67;24.93;;;6.90;99.90;;;;;;4857456;29;20234;-79
2024/02/28 07:02:21;;;;;;;27.07;24.20;;;7.00;99.90;;;;;;4842552;29;20685;-78
2024/02/28 07:04:48;;;;;;;29.47;26.20;;;6.90;99.90;;;;;;4843077;29;20273;-78
2024/02/28 07:07:15;;;;;;;26.83;24.03;;;7.00;99.90;;;;;;4842820;29;20671;-78
2024/02/28 07:09:41;;;;;;;25.83;23.13;;;7.00;99.90;;;;;;4849742;29;20214;-78
2024/02/28 07:12:08;;;;;;;26.43;23.27;;;7.00;99.90;;;;;;4842518;29;20228;-78
2024/02/28 07:14:35;;;;;;;24.20;21.70;;;7.00;99.90;;;;;;4842178;29;20230;-78
2024/02/28 07:17:03;;;;;;;26.33;23.47;;;7.00;99.90;;;;;;4842523;29;20263;-78
2024/02/28 07:19:30;;;;;;;26.97;24.07;;;7.00;99.90;;;;;;4856131;29;20280;-78
2024/02/28 07:21:57;;;;;;;27.33;24.23;;;7.00;99.90;;;;;;4842263;29;20255;-78
2024/02/28 07:24:23;;;;;;;25.10;22.50;;;7.10;99.90;;;;;;4841970;29;20222;-78
2024/02/28 07:26:50;;;;;;;24.80;22.20;;;7.10;99.90;;;;;;4842498;29;20198;-79
2024/02/28 07:29:17;;;;;;;24.83;22.20;;;7.10;99.90;;;;;;4856298;29;20785;-78
2024/02/28 07:31:45;;;;;;;26.60;23.67;;;7.10;99.90;;;;;;4842357;29;20206;-78
2024/02/28 07:34:13;;;;;;;25.17;22.50;;;7.10;99.90;;;;;;4855614;29;20230;-78
2024/02/28 07:36:40;;;;;;;25.87;23.07;;;7.10;99.90;;;;;;4856551;29;20293;-78
2024/02/28 07:39:07;;;;;;;25.67;22.73;;;7.10;99.90;;;;;;4856326;29;20211;-78
2024/02/28 07:41:33;;;;;;;25.00;22.40;;;7.10;99.90;;;;;;4841781;29;20210;-78
2024/02/28 07:44:00;;;;;;;24.30;21.80;;;7.10;99.90;;;;;;4844541;29;20263;-78
2024/02/28 07:46:27;;;;;;;24.57;22.10;;;7.20;99.90;;;;;;4855418;29;20210;-78
2024/02/28 07:48:54;;;;;;;23.77;21.33;;;7.20;99.90;;;;;;4840264;29;20632;-78
2024/02/28 07:51:22;;;;;;;27.70;23.93;;;7.30;99.90;;;;;;4855440;29;20275;-78
2024/02/28 07:53:49;;;;;;;27.33;24.43;;;7.30;99.90;;;;;;4841201;29;20288;-79
2024/02/28 07:56:19;;;;;;;27.20;24.17;;;7.30;99.90;;;;;;4841509;29;20207;-78
2024/02/28 07:58:46;;;;;;;24.30;21.70;;;7.40;99.90;;;;;;4855673;29;20268;-78
2024/02/28 08:01:13;;;;;;;24.30;21.70;;;7.50;99.90;;;;;;4842033;29;20206;-78
2024/02/28 08:03:40;;;;;;;24.57;21.60;;;7.60;99.90;;;;;;4855518;29;20275;-78
2024/02/28 08:06:08;;;;;;;23.83;19.90;;;7.60;99.90;;;;;;4841294;29;20267;-78
2024/02/28 08:08:36;;;;;;;21.70;19.50;;;7.70;99.90;;;;;;4840201;29;20202;-78
2024/02/28 08:11:03;;;;;;;23.87;20.90;;;7.70;99.90;;;;;;4841309;29;20263;-78
2024/02/28 08:13:32;;;;;;;23.67;20.80;;;7.70;99.90;;;;;;4841264;29;20226;-78
2024/02/28 08:15:59;;;;;;;26.50;23.27;;;7.70;99.90;;;;;;4841505;29;20285;-78
2024/02/28 08:18:27;;;;;;;21.37;16.20;;;7.70;99.90;;;;;;4841260;29;20211;-78
2024/02/28 08:20:57;;;;;;;22.80;20.30;;;7.80;99.90;;;;;;4835583;29;20298;-78
2024/02/28 08:23:24;;;;;;;19.10;14.80;;;7.80;99.90;;;;;;4855336;29;20233;-78
2024/02/28 08:25:52;;;;;;;23.07;15.33;;;7.90;99.90;;;;;;4841205;29;20202;-78
2024/02/28 08:28:19;;;;;;;20.87;15.70;;;7.80;99.90;;;;;;4842296;29;20206;-78
2024/02/28 08:30:46;;;;;;;23.23;16.70;;;7.80;99.90;;;;;;4855615;29;20211;-78
2024/02/28 08:33:13;;;;;;;26.20;22.93;;;7.80;99.90;;;;;;4841601;29;20224;-78
2024/02/28 08:35:39;;;;;;;24.53;21.00;;;7.70;99.90;;;;;;4840934;29;20207;-79
2024/02/28 08:38:06;;;;;;;23.07;17.77;;;7.70;99.90;;;;;;4841132;29;20267;-79
2024/02/28 08:40:33;;;;;;;27.53;23.17;;;7.70;99.90;;;;;;4840620;29;20226;-79
2024/02/28 08:43:01;;;;;;;26.30;22.77;;;7.70;99.90;;;;;;4840782;29;20290;-78
2024/02/28 08:45:28;;;;;;;23.73;21.13;;;7.70;99.90;;;;;;4840920;29;20201;-78
2024/02/28 08:47:57;;;;;;;24.13;21.60;;;7.70;99.90;;;;;;4841056;29;20282;-79
2024/02/28 08:50:24;;;;;;;21.23;18.93;;;7.70;99.90;;;;;;4840714;29;20590;-79
2024/02/28 08:52:51;;;;;;;20.47;15.60;;;7.80;99.90;;;;;;4841444;29;20647;-78
2024/02/28 08:55:19;;;;;;;24.17;21.60;;;7.90;99.90;;;;;;4843991;29;20222;-78
2024/02/28 08:57:46;;;;;;;21.50;17.60;;;8.00;99.90;;;;;;4837481;29;20522;-79
2024/02/28 09:00:16;;;;;;;24.00;21.60;;;8.00;99.90;;;;;;4844366;29;20199;-79
2024/02/28 09:02:43;;;;;;;20.27;16.43;;;8.10;99.90;;;;;;4843897;29;20305;-79
2024/02/28 09:05:10;;;;;;;22.73;20.43;;;8.00;99.90;;;;;;4844326;29;20250;-79
2024/02/28 09:07:37;;;;;;;23.33;19.20;;;8.10;99.90;;;;;;4844003;29;20251;-79
2024/02/28 09:10:05;;;;;;;25.17;22.87;;;8.10;99.90;;;;;;4844550;29;20241;-81
2024/02/28 09:12:32;;;;;;;24.23;21.30;;;8.10;99.90;;;;;;4844578;29;20274;-80
2024/02/28 09:14:59;;;;;;;21.20;18.47;;;8.10;99.90;;;;;;4859215;29;20230;-81
2024/02/28 09:17:27;;;;;;;18.90;14.63;;;8.10;99.90;;;;;;4858046;29;20214;-80
2024/02/28 09:19:54;;;;;;;21.87;16.57;;;8.00;99.90;;;;;;4844223;29;20205;-81
2024/02/28 09:22:23;;;;;;;25.47;22.10;;;8.10;99.90;;;;;;4844389;29;20198;-79
2024/02/28 09:24:50;;;;;;;23.20;20.80;;;8.00;99.90;;;;;;4844183;29;20573;-79
2024/02/28 09:27:18;;;;;;;22.30;19.87;;;8.00;99.90;;;;;;4843911;29;20210;-79
2024/02/28 09:29:44;;;;;;;21.80;19.70;;;8.10;99.90;;;;;;4843415;29;20202;-79
2024/02/28 09:32:11;;;;;;;23.67;21.23;;;8.20;99.90;;;;;;4843724;29;20206;-78
2024/02/28 09:34:40;;;;;;;22.10;18.03;;;8.20;99.90;;;;;;4857862;29;20229;-79
2024/02/28 09:37:07;;;;;;;24.57;21.93;;;8.10;99.90;;;;;;4843560;29;20245;-79
2024/02/28 09:39:33;;;;;;;25.13;22.47;;;8.00;99.90;;;;;;4843817;29;20275;-78
2024/02/28 09:42:01;;;;;;;25.03;22.33;;;8.10;99.90;;;;;;4842458;29;20622;-78
2024/02/28 09:44:27;;;;;;;23.80;21.40;;;8.00;99.90;;;;;;4857835;29;20300;-79
2024/02/28 09:46:54;;;;;;;25.37;22.67;;;8.00;99.90;;;;;;4843472;29;20202;-79
2024/02/28 09:49:22;;;;;;;25.97;23.17;;;7.90;99.90;;;;;;4857035;29;20203;-79
2024/02/28 09:51:51;;;;;;;24.07;21.67;;;7.90;99.90;;;;;;4843031;29;20234;-79
2024/02/28 09:54:18;;;;;;;24.37;21.77;;;8.00;99.90;;;;;;4843555;29;20411;-79
2024/02/28 09:56:45;;;;;;;25.10;22.43;;;8.00;99.90;;;;;;4844694;29;20214;-79
2024/02/28 09:59:13;;;;;;;27.33;23.83;;;8.00;99.90;;;;;;4843543;29;20227;-79
2024/02/28 10:01:44;;;;;;;27.03;24.17;;;8.00;99.90;;;;;;4857200;29;20211;-79
2024/02/28 10:04:12;;;;;;;26.03;22.63;;;8.00;99.90;;;;;;4854142;29;20257;-79
2024/02/28 10:06:40;;;;;;;24.67;22.13;;;7.90;99.90;;;;;;4840649;29;20261;-78
2024/02/28 10:09:10;;;;;;;24.20;21.60;;;8.00;99.90;;;;;;4842892;29;20198;-79
2024/02/28 10:11:37;;;;;;;22.70;20.33;;;8.00;99.90;;;;;;4856305;29;20210;-80
2024/02/28 10:14:04;;;;;;;23.77;21.10;;;8.00;99.90;;;;;;4841689;29;20226;-80
2024/02/28 10:16:31;;;;;;;24.13;21.53;;;8.10;99.90;;;;;;4842933;29;20650;-81
2024/02/28 10:18:58;;;;;;;22.83;20.43;;;8.00;99.90;;;;;;4857391;29;20209;-85
2024/02/28 10:21:26;;;;;;;25.27;22.63;;;8.10;99.90;;;;;;4850280;29;20202;-84
2024/02/28 10:23:58;;;;;;;24.00;21.27;;;7.90;99.90;;;;;;4851350;29;20237;-84
2024/02/28 10:26:27;;;;;;;24.50;21.00;;;7.90;99.90;;;;;;4857865;29;20214;-85
2024/02/28 10:28:54;;;;;;;23.00;20.60;;;8.10;99.90;;;;;;4850812;29;20277;-80
2024/02/28 10:31:22;;;;;;;25.60;22.90;;;8.20;99.90;;;;;;4857449;29;20214;-78
2024/02/28 10:33:49;;;;;;;23.90;21.27;;;8.20;99.90;;;;;;4842285;29;20269;-78
2024/02/28 10:36:16;;;;;;;22.13;19.30;;;8.20;99.90;;;;;;4843078;29;20259;-78
2024/02/28 10:38:42;;;;;;;20.60;15.80;;;8.20;99.90;;;;;;4849382;29;20214;-78
2024/02/28 10:41:12;;;;;;;24.00;19.27;;;8.20;99.90;;;;;;4857274;29;20226;-78
2024/02/28 10:43:41;;;;;;;20.67;15.67;;;8.20;99.90;;;;;;4842578;29;20657;-78
2024/02/28 10:46:09;;;;;;;26.20;23.23;;;8.30;99.90;;;;;;4842794;29;20254;-78
2024/02/28 10:48:36;;;;;;;25.53;21.90;;;8.30;99.90;;;;;;4842445;29;20202;-79
2024/02/28 10:51:05;;;;;;;26.83;22.73;;;8.30;99.90;;;;;;4842754;29;20206;-79
2024/02/28 10:53:37;;;;;;;23.93;21.37;;;8.30;99.90;;;;;;4842747;29;20247;-78
2024/02/28 10:56:05;;;;;;;23.87;21.23;;;8.40;99.90;;;;;;4842912;29;20222;-78
2024/02/28 10:58:35;;;;;;;24.27;20.83;;;8.50;99.90;;;;;;4842925;29;20258;-78
2024/02/28 11:01:04;;;;;;;24.40;21.80;;;8.50;99.90;;;;;;4856760;29;20207;-78
2024/02/28 11:03:32;;;;;;;25.53;20.17;;;8.50;99.90;;;;;;4842526;29;20230;-78
2024/02/28 11:05:58;;;;;;;24.67;22.07;;;8.40;99.90;;;;;;4843372;29;20637;-79
2024/02/28 11:08:27;;;;;;;23.30;16.20;;;8.50;99.90;;;;;;4843241;29;20275;-78
2024/02/28 11:10:58;;;;;;;26.17;22.23;;;8.50;99.90;;;;;;4842766;29;20328;-79
2024/02/28 11:13:26;;;;;;;26.77;23.07;;;8.50;99.90;;;;;;4843364;29;20794;-78
2024/02/28 11:15:55;;;;;;;25.83;21.03;;;8.50;99.90;;;;;;4856815;29;20239;-79
2024/02/28 11:18:23;;;;;;;23.13;20.63;;;8.50;99.90;;;;;;4843030;29;20207;-79
2024/02/28 11:20:50;;;;;;;24.87;21.23;;;8.50;99.90;;;;;;4856646;29;20297;-78
2024/02/28 11:23:18;;;;;;;25.53;16.63;;;8.70;99.90;;;;;;4842844;29;20647;-78
2024/02/28 11:25:45;;;;;;;23.67;19.93;;;8.70;99.90;;;;;;4842776;29;20211;-78
2024/02/28 11:28:12;;;;;;;20.07;15.10;;;8.80;99.90;;;;;;4842830;29;20203;-79
2024/02/28 11:30:38;;;;;;;23.83;21.43;;;9.00;99.90;;;;;;4843585;29;20688;-79
2024/02/28 11:33:08;;;;;;;26.23;23.63;;;9.00;99.90;;;;;;4844748;29;20241;-79
2024/02/28 11:35:36;;;;;;;22.83;19.20;;;8.90;99.90;;;;;;4843622;29;20270;-78
2024/02/28 11:38:03;;;;;;;18.43;16.43;;;9.00;99.90;;;;;;4843818;29;20226;-79
2024/02/28 11:40:30;;;;;;;19.87;16.63;;;9.10;99.90;;;;;;4843044;29;20210;-79
2024/02/28 11:42:57;;;;;;;21.23;18.63;;;9.20;99.90;;;;;;4842296;29;20287;-79
2024/02/28 11:45:25;;;;;;;23.63;18.70;;;9.20;99.90;;;;;;4842705;29;20200;-79
2024/02/28 11:47:52;;;;;;;22.57;20.07;;;9.10;99.90;;;;;;4856358;29;20306;-79
2024/02/28 11:50:19;;;;;;;22.37;17.83;;;9.10;99.90;;;;;;4842937;29;20207;-78
2024/02/28 11:52:47;;;;;;;22.90;20.07;;;9.10;99.90;;;;;;4842954;29;20309;-78
2024/02/28 11:55:14;;;;;;;26.30;23.50;;;9.00;99.90;;;;;;4841227;29;20237;-79
2024/02/28 11:57:41;;;;;;;22.50;19.13;;;8.90;99.90;;;;;;4842998;29;20202;-78
2024/02/28 12:00:10;;;;;;;24.53;21.93;;;8.90;99.90;;;;;;4856805;29;20215;-78
2024/02/28 12:02:37;;;;;;;26.23;23.53;;;9.00;99.90;;;;;;4841692;29;20233;-78
2024/02/28 12:05:04;;;;;;;20.73;17.63;;;8.90;99.90;;;;;;4856891;29;20255;-78
2024/02/28 12:07:32;;;;;;;17.40;13.77;;;8.90;99.90;;;;;;4843029;29;20596;-78
2024/02/28 12:10:00;;;;;;;18.67;12.80;;;9.00;99.90;;;;;;4841055;29;20211;-79
2024/02/28 12:12:28;;;;;;;18.00;13.43;;;9.00;99.90;;;;;;4842702;29;20259;-78
2024/02/28 12:14:59;;;;;;;15.90;12.43;;;9.00;99.90;;;;;;4842486;29;20230;-78
2024/02/28 12:17:26;;;;;;;21.63;16.23;;;9.00;99.90;;;;;;4842415;29;20215;-79
2024/02/28 12:19:53;;;;;;;20.77;16.93;;;8.90;99.90;;;;;;4842535;29;20202;-78
2024/02/28 12:22:19;;;;;;;24.27;21.63;;;8.80;99.90;;;;;;4841505;29;20203;-79
2024/02/28 12:24:46;;;;;;;26.43;22.30;;;8.70;99.90;;;;;;4842153;29;20202;-79
2024/02/28 12:27:14;;;;;;;26.50;22.27;;;8.70;99.90;;;;;;4856165;29;20238;-78
2024/02/28 12:29:41;;;;;;;25.07;22.37;;;8.70;99.90;;;;;;4858577;29;20210;-78
2024/02/28 12:32:09;;;;;;;23.30;20.10;;;8.70;99.90;;;;;;4859852;29;20211;-81
2024/02/28 12:34:36;;;;;;;24.77;21.67;;;8.70;99.90;;;;;;4860649;29;20295;-79
2024/02/28 12:37:04;;;;;;;28.63;23.30;;;8.70;99.90;;;;;;4843905;29;20202;-78